OAN110 ESCM-EPRZ
Flight info
| Callsign | OAN110 |
|---|---|
| Flight time | 2h 0m |
| Altitude | 29000 |
| Route | LINSA DCT VSB DCT PENOR DCT VAPOS DCT SUTIK DCT LIMVI DCT NATEV DCT LIBGA DCT VELAX |
| Aircraft | C17/H-SDE1E2FGHIJ5RTUWXY/LB1D1 |
Departure
| Time | 2026-05-07 05:56 |
|---|---|
| Airport | Ärna Air Base (ESCM) |
Arrival
| Time | 2026-05-07 07:56 |
|---|---|
| Airport | Rzeszów-Jasionka Airport (EPRZ) |
| Time | Latitude | Longitude | Altitude | Speed | Heading |
|---|---|---|---|---|---|
| 2026-05-07 05:48 | 59.89256 | 17.60120 | 39 ft | 0 kts | 47° |
| 2026-05-07 05:50 | 59.89265 | 17.60134 | 39 ft | 4 kts | 27° |
| 2026-05-07 05:50 | 59.89298 | 17.60111 | 39 ft | 6 kts | 318° |
| 2026-05-07 05:50 | 59.89350 | 17.60055 | 39 ft | 10 kts | 359° |
| 2026-05-07 05:50 | 59.89428 | 17.60083 | 39 ft | 12 kts | 8° |
| 2026-05-07 05:51 | 59.89495 | 17.60081 | 39 ft | 3 kts | 16° |
| 2026-05-07 05:51 | 59.89538 | 17.60117 | 39 ft | 18 kts | 22° |
| 2026-05-07 05:51 | 59.89723 | 17.60187 | 39 ft | 33 kts | 10° |
| 2026-05-07 05:51 | 59.89942 | 17.60266 | 39 ft | 31 kts | 10° |
| 2026-05-07 05:52 | 59.90146 | 17.60334 | 39 ft | 29 kts | 11° |
| 2026-05-07 05:52 | 59.90334 | 17.60404 | 39 ft | 27 kts | 11° |
| 2026-05-07 05:52 | 59.90518 | 17.60475 | 39 ft | 26 kts | 11° |
| 2026-05-07 05:52 | 59.90687 | 17.60501 | 39 ft | 22 kts | 352° |
| 2026-05-07 05:53 | 59.90784 | 17.60359 | 39 ft | 16 kts | 271° |
| 2026-05-07 05:53 | 59.90738 | 17.60184 | 41 ft | 13 kts | 219° |
| 2026-05-07 05:53 | 59.90691 | 17.60125 | 42 ft | 0 kts | 213° |
| 2026-05-07 05:55 | 59.90604 | 17.60014 | 42 ft | 39 kts | 212° |
| 2026-05-07 05:55 | 59.90531 | 17.59921 | 41 ft | 60 kts | 213° |
| 2026-05-07 05:55 | 59.90064 | 17.59309 | 43 ft | 133 kts | 212° |
| 2026-05-07 05:55 | 59.89159 | 17.58115 | 614 ft | 178 kts | 212° |
| 2026-05-07 05:56 | 59.88012 | 17.56894 | 1367 ft | 188 kts | 199° |
| 2026-05-07 05:56 | 59.86738 | 17.55983 | 1821 ft | 207 kts | 204° |
| 2026-05-07 05:56 | 59.85446 | 17.54716 | 2230 ft | 204 kts | 208° |
| 2026-05-07 05:56 | 59.84164 | 17.53327 | 2702 ft | 219 kts | 208° |
| 2026-05-07 05:57 | 59.82816 | 17.51922 | 3295 ft | 218 kts | 207° |
| 2026-05-07 05:57 | 59.81459 | 17.50520 | 3837 ft | 223 kts | 207° |
| 2026-05-07 05:57 | 59.80087 | 17.49086 | 4393 ft | 223 kts | 207° |
| 2026-05-07 05:57 | 59.78689 | 17.47631 | 4932 ft | 230 kts | 207° |
| 2026-05-07 05:58 | 59.77263 | 17.46156 | 5498 ft | 230 kts | 207° |
| 2026-05-07 05:58 | 59.75840 | 17.44682 | 6026 ft | 234 kts | 208° |
| 2026-05-07 05:58 | 59.74389 | 17.43179 | 6606 ft | 236 kts | 208° |
| 2026-05-07 05:58 | 59.72908 | 17.41760 | 7134 ft | 238 kts | 198° |
| 2026-05-07 05:59 | 59.71210 | 17.41717 | 7660 ft | 260 kts | 169° |
| 2026-05-07 05:59 | 59.69440 | 17.42580 | 8444 ft | 263 kts | 167° |
| 2026-05-07 05:59 | 59.67633 | 17.43467 | 9215 ft | 272 kts | 168° |
| 2026-05-07 05:59 | 59.65780 | 17.44364 | 10020 ft | 275 kts | 169° |
| 2026-05-07 06:00 | 59.63915 | 17.45263 | 10731 ft | 278 kts | 170° |
| 2026-05-07 06:00 | 59.62023 | 17.46167 | 11478 ft | 281 kts | 171° |
| 2026-05-07 06:00 | 59.60116 | 17.47078 | 12256 ft | 282 kts | 171° |
| 2026-05-07 06:00 | 59.58175 | 17.47999 | 13083 ft | 298 kts | 172° |
| 2026-05-07 06:01 | 59.56131 | 17.48969 | 14035 ft | 303 kts | 171° |
| 2026-05-07 06:01 | 59.54083 | 17.49958 | 14776 ft | 310 kts | 172° |
| 2026-05-07 06:01 | 59.51957 | 17.50963 | 15222 ft | 315 kts | 172° |
| 2026-05-07 06:01 | 59.49773 | 17.51996 | 15701 ft | 328 kts | 172° |
| 2026-05-07 06:02 | 59.47574 | 17.53049 | 16159 ft | 323 kts | 172° |
| 2026-05-07 06:02 | 59.45404 | 17.54081 | 16636 ft | 326 kts | 172° |
| 2026-05-07 06:02 | 59.43176 | 17.55127 | 17116 ft | 331 kts | 172° |
| 2026-05-07 06:02 | 59.40939 | 17.56187 | 17613 ft | 331 kts | 172° |
| 2026-05-07 06:03 | 59.38694 | 17.57249 | 18106 ft | 333 kts | 172° |
| 2026-05-07 06:03 | 59.36452 | 17.58305 | 18581 ft | 332 kts | 172° |
| 2026-05-07 06:03 | 59.34196 | 17.59366 | 19009 ft | 335 kts | 172° |
| 2026-05-07 06:03 | 59.31921 | 17.60434 | 19446 ft | 338 kts | 172° |
| 2026-05-07 06:04 | 59.29659 | 17.61501 | 19925 ft | 328 kts | 173° |
| 2026-05-07 06:04 | 59.27490 | 17.62529 | 20388 ft | 313 kts | 173° |
| 2026-05-07 06:04 | 59.25414 | 17.63500 | 20829 ft | 305 kts | 173° |
| 2026-05-07 06:04 | 59.23257 | 17.64476 | 21363 ft | 333 kts | 173° |
| 2026-05-07 06:05 | 59.20888 | 17.65559 | 21826 ft | 367 kts | 172° |
| 2026-05-07 06:05 | 59.18325 | 17.66772 | 22239 ft | 385 kts | 172° |
| 2026-05-07 06:05 | 59.15722 | 17.68018 | 22603 ft | 386 kts | 172° |
| 2026-05-07 06:05 | 59.13091 | 17.69239 | 22938 ft | 391 kts | 173° |
| 2026-05-07 06:06 | 59.10431 | 17.70458 | 23279 ft | 390 kts | 173° |
| 2026-05-07 06:06 | 59.07859 | 17.71665 | 23591 ft | 374 kts | 173° |
| 2026-05-07 06:06 | 59.05320 | 17.72839 | 23865 ft | 380 kts | 173° |
| 2026-05-07 06:06 | 59.02721 | 17.74019 | 24168 ft | 385 kts | 173° |
| 2026-05-07 06:07 | 59.00124 | 17.75225 | 24450 ft | 383 kts | 173° |
| 2026-05-07 06:07 | 58.97531 | 17.76429 | 24735 ft | 384 kts | 173° |
| 2026-05-07 06:07 | 58.94925 | 17.77621 | 25038 ft | 386 kts | 173° |
| 2026-05-07 06:07 | 58.92309 | 17.78816 | 25308 ft | 388 kts | 173° |
| 2026-05-07 06:08 | 58.89696 | 17.80024 | 25593 ft | 377 kts | 173° |
| 2026-05-07 06:08 | 58.87227 | 17.81176 | 25756 ft | 360 kts | 174° |
| 2026-05-07 06:08 | 58.84765 | 17.82274 | 25914 ft | 368 kts | 174° |
| 2026-05-07 06:08 | 58.82240 | 17.83404 | 26163 ft | 374 kts | 174° |
| 2026-05-07 06:09 | 58.79711 | 17.84576 | 26408 ft | 373 kts | 174° |
| 2026-05-07 06:09 | 58.77181 | 17.85738 | 26635 ft | 374 kts | 174° |
| 2026-05-07 06:09 | 58.74644 | 17.86881 | 26873 ft | 376 kts | 174° |
| 2026-05-07 06:09 | 58.72082 | 17.88037 | 27113 ft | 378 kts | 174° |
| 2026-05-07 06:10 | 58.69558 | 17.89186 | 27323 ft | 377 kts | 174° |
| 2026-05-07 06:10 | 58.67012 | 17.90343 | 27573 ft | 375 kts | 174° |
| 2026-05-07 06:10 | 58.64473 | 17.91485 | 27792 ft | 376 kts | 174° |
| 2026-05-07 06:10 | 58.61910 | 17.92634 | 27997 ft | 379 kts | 174° |
| 2026-05-07 06:11 | 58.59321 | 17.93799 | 28257 ft | 386 kts | 174° |
| 2026-05-07 06:11 | 58.56701 | 17.94981 | 28542 ft | 386 kts | 174° |
| 2026-05-07 06:11 | 58.54092 | 17.96158 | 28799 ft | 385 kts | 174° |
| 2026-05-07 06:11 | 58.51475 | 17.97326 | 28999 ft | 389 kts | 174° |
| 2026-05-07 06:12 | 58.48856 | 17.98497 | 29018 ft | 384 kts | 174° |
| 2026-05-07 06:12 | 58.43719 | 18.00798 | 29032 ft | 374 kts | 174° |
| 2026-05-07 06:13 | 58.38716 | 18.03022 | 29017 ft | 365 kts | 174° |
| 2026-05-07 06:13 | 58.33831 | 18.05189 | 29026 ft | 358 kts | 175° |
| 2026-05-07 06:14 | 58.28965 | 18.07336 | 29057 ft | 360 kts | 174° |
| 2026-05-07 06:14 | 58.24094 | 18.09492 | 29056 ft | 358 kts | 174° |
| 2026-05-07 06:15 | 58.19245 | 18.11621 | 29051 ft | 358 kts | 174° |
| 2026-05-07 06:15 | 58.14380 | 18.13756 | 29055 ft | 359 kts | 174° |
| 2026-05-07 06:16 | 58.09528 | 18.15881 | 29055 ft | 357 kts | 174° |
| 2026-05-07 06:16 | 58.04678 | 18.17995 | 29056 ft | 359 kts | 174° |
| 2026-05-07 06:17 | 57.99815 | 18.20114 | 29047 ft | 358 kts | 174° |
| 2026-05-07 06:17 | 57.94927 | 18.22229 | 29055 ft | 362 kts | 174° |
| 2026-05-07 06:18 | 57.90033 | 18.24226 | 29057 ft | 358 kts | 176° |
| 2026-05-07 06:18 | 57.85156 | 18.26339 | 29056 ft | 362 kts | 173° |
| 2026-05-07 06:19 | 57.80289 | 18.28478 | 29059 ft | 361 kts | 174° |
| 2026-05-07 06:19 | 57.75409 | 18.30591 | 29056 ft | 360 kts | 174° |
| 2026-05-07 06:20 | 57.70527 | 18.32707 | 29058 ft | 361 kts | 174° |
| 2026-05-07 06:20 | 57.65628 | 18.34001 | 29068 ft | 349 kts | 192° |
| 2026-05-07 06:20 | 57.63281 | 18.33053 | 29074 ft | 343 kts | 203° |
| 2026-05-07 06:21 | 57.61021 | 18.31633 | 29063 ft | 343 kts | 204° |
| 2026-05-07 06:21 | 57.56511 | 18.28844 | 29052 ft | 340 kts | 203° |
| 2026-05-07 06:22 | 57.52010 | 18.26065 | 29055 ft | 342 kts | 203° |
| 2026-05-07 06:22 | 57.45235 | 18.21902 | 29054 ft | 340 kts | 203° |
| 2026-05-07 06:23 | 57.40726 | 18.19140 | 29050 ft | 342 kts | 203° |
| 2026-05-07 06:23 | 57.36204 | 18.16377 | 29050 ft | 342 kts | 203° |
| 2026-05-07 06:24 | 57.31701 | 18.13634 | 29050 ft | 341 kts | 203° |
| 2026-05-07 06:24 | 57.27215 | 18.10906 | 29055 ft | 342 kts | 203° |
| 2026-05-07 06:25 | 57.22691 | 18.08162 | 29048 ft | 342 kts | 203° |
| 2026-05-07 06:25 | 57.18176 | 18.05433 | 29040 ft | 342 kts | 203° |
| 2026-05-07 06:26 | 57.13643 | 18.02697 | 29047 ft | 346 kts | 202° |
| 2026-05-07 06:26 | 57.09067 | 17.99948 | 29038 ft | 344 kts | 202° |
| 2026-05-07 06:27 | 57.04522 | 17.97218 | 29031 ft | 344 kts | 202° |
| 2026-05-07 06:27 | 56.99959 | 17.94487 | 29038 ft | 345 kts | 202° |
| 2026-05-07 06:28 | 56.95406 | 17.91771 | 29030 ft | 343 kts | 202° |
| 2026-05-07 06:28 | 56.90854 | 17.89059 | 29019 ft | 345 kts | 202° |
| 2026-05-07 06:29 | 56.86316 | 17.86364 | 29037 ft | 346 kts | 202° |
| 2026-05-07 06:29 | 56.81746 | 17.83659 | 29035 ft | 344 kts | 202° |
| 2026-05-07 06:30 | 56.77188 | 17.80965 | 29029 ft | 344 kts | 202° |
| 2026-05-07 06:30 | 56.72618 | 17.78270 | 29037 ft | 345 kts | 202° |
| 2026-05-07 06:31 | 56.68054 | 17.75588 | 29035 ft | 344 kts | 202° |
| 2026-05-07 06:31 | 56.63494 | 17.72915 | 29046 ft | 345 kts | 201° |
| 2026-05-07 06:32 | 56.58902 | 17.70229 | 29043 ft | 347 kts | 201° |
| 2026-05-07 06:32 | 56.54327 | 17.67561 | 29038 ft | 344 kts | 201° |
| 2026-05-07 06:33 | 56.49748 | 17.64894 | 29041 ft | 347 kts | 201° |
| 2026-05-07 06:33 | 56.45168 | 17.62239 | 29042 ft | 345 kts | 201° |
| 2026-05-07 06:34 | 56.40595 | 17.59590 | 29034 ft | 345 kts | 201° |
| 2026-05-07 06:34 | 56.36016 | 17.56945 | 29036 ft | 347 kts | 201° |
| 2026-05-07 06:35 | 56.31420 | 17.54299 | 29033 ft | 346 kts | 201° |
| 2026-05-07 06:35 | 56.26846 | 17.51669 | 29029 ft | 345 kts | 201° |
| 2026-05-07 06:36 | 56.22260 | 17.49041 | 29030 ft | 347 kts | 201° |
| 2026-05-07 06:36 | 56.18446 | 17.46862 | 29030 ft | 346 kts | 201° |
| 2026-05-07 06:37 | 56.13872 | 17.44252 | 29012 ft | 345 kts | 201° |
| 2026-05-07 06:37 | 56.09329 | 17.41668 | 29031 ft | 340 kts | 201° |
| 2026-05-07 06:38 | 56.04812 | 17.39101 | 29026 ft | 342 kts | 201° |
| 2026-05-07 06:38 | 56.00273 | 17.36532 | 29034 ft | 342 kts | 201° |
| 2026-05-07 06:39 | 55.95750 | 17.33976 | 29024 ft | 341 kts | 201° |
| 2026-05-07 06:39 | 55.91213 | 17.31419 | 29028 ft | 342 kts | 201° |
| 2026-05-07 06:40 | 55.86684 | 17.28877 | 29020 ft | 338 kts | 202° |
| 2026-05-07 06:40 | 55.82245 | 17.26384 | 29017 ft | 335 kts | 202° |
| 2026-05-07 06:41 | 55.77769 | 17.23880 | 29028 ft | 338 kts | 201° |
| 2026-05-07 06:41 | 55.73307 | 17.21392 | 29022 ft | 335 kts | 202° |
| 2026-05-07 06:42 | 55.68840 | 17.18902 | 29025 ft | 338 kts | 201° |
| 2026-05-07 06:42 | 55.64223 | 17.17263 | 29028 ft | 346 kts | 183° |
| 2026-05-07 06:43 | 55.61824 | 17.17939 | 29037 ft | 355 kts | 169° |
| 2026-05-07 06:43 | 55.59516 | 17.19603 | 29039 ft | 361 kts | 163° |
| 2026-05-07 06:43 | 55.54959 | 17.23318 | 29025 ft | 360 kts | 163° |
| 2026-05-07 06:44 | 55.50387 | 17.26975 | 29021 ft | 361 kts | 163° |
| 2026-05-07 06:44 | 55.45813 | 17.30638 | 29023 ft | 361 kts | 163° |
| 2026-05-07 06:45 | 55.41243 | 17.34288 | 29017 ft | 360 kts | 163° |
| 2026-05-07 06:45 | 55.36704 | 17.37901 | 29016 ft | 361 kts | 163° |
| 2026-05-07 06:46 | 55.32128 | 17.41537 | 28990 ft | 359 kts | 163° |
| 2026-05-07 06:46 | 55.27590 | 17.45132 | 29000 ft | 358 kts | 163° |
| 2026-05-07 06:47 | 55.23033 | 17.48732 | 29007 ft | 360 kts | 163° |
| 2026-05-07 06:47 | 55.18478 | 17.52326 | 29005 ft | 358 kts | 163° |
| 2026-05-07 06:48 | 55.13931 | 17.55898 | 29006 ft | 359 kts | 163° |
| 2026-05-07 06:48 | 55.09367 | 17.59479 | 29004 ft | 359 kts | 163° |
| 2026-05-07 06:49 | 55.04814 | 17.63043 | 28992 ft | 358 kts | 163° |
| 2026-05-07 06:49 | 55.00261 | 17.66594 | 28989 ft | 359 kts | 163° |
| 2026-05-07 06:50 | 54.95700 | 17.70146 | 29004 ft | 359 kts | 163° |
| 2026-05-07 06:50 | 54.91158 | 17.73674 | 28994 ft | 356 kts | 163° |
| 2026-05-07 06:51 | 54.86626 | 17.77184 | 28996 ft | 357 kts | 163° |
| 2026-05-07 06:51 | 54.82075 | 17.80701 | 28999 ft | 358 kts | 163° |
| 2026-05-07 06:52 | 54.77870 | 17.85449 | 29008 ft | 373 kts | 143° |
| 2026-05-07 06:52 | 54.74158 | 17.91830 | 29004 ft | 376 kts | 143° |
| 2026-05-07 06:53 | 54.70445 | 17.98141 | 28994 ft | 373 kts | 143° |
| 2026-05-07 06:53 | 54.66751 | 18.04398 | 28988 ft | 376 kts | 143° |
| 2026-05-07 06:54 | 54.63030 | 18.10700 | 28982 ft | 371 kts | 143° |
| 2026-05-07 06:54 | 54.59353 | 18.16893 | 28966 ft | 370 kts | 143° |
| 2026-05-07 06:55 | 54.55654 | 18.23118 | 28968 ft | 372 kts | 143° |
| 2026-05-07 06:55 | 54.51954 | 18.29329 | 28950 ft | 370 kts | 143° |
| 2026-05-07 06:56 | 54.48260 | 18.35503 | 28946 ft | 372 kts | 143° |
| 2026-05-07 06:56 | 54.44546 | 18.41704 | 28946 ft | 371 kts | 143° |
| 2026-05-07 06:57 | 54.40845 | 18.47863 | 28921 ft | 370 kts | 143° |
| 2026-05-07 06:57 | 54.37153 | 18.53990 | 28940 ft | 369 kts | 143° |
| 2026-05-07 06:58 | 54.33468 | 18.60092 | 28932 ft | 368 kts | 143° |
| 2026-05-07 06:58 | 54.29764 | 18.66206 | 28941 ft | 371 kts | 143° |
| 2026-05-07 06:59 | 54.26077 | 18.72279 | 28941 ft | 369 kts | 143° |
| 2026-05-07 06:59 | 54.22375 | 18.78358 | 28939 ft | 370 kts | 143° |
| 2026-05-07 07:00 | 54.18656 | 18.84452 | 28935 ft | 370 kts | 143° |
| 2026-05-07 07:00 | 54.14952 | 18.90508 | 28933 ft | 367 kts | 144° |
| 2026-05-07 07:01 | 54.11251 | 18.96532 | 28928 ft | 369 kts | 144° |
| 2026-05-07 07:01 | 54.07538 | 19.02569 | 28926 ft | 369 kts | 144° |
| 2026-05-07 07:02 | 54.03834 | 19.08577 | 28929 ft | 367 kts | 144° |
| 2026-05-07 07:02 | 54.00118 | 19.14582 | 28922 ft | 370 kts | 144° |
| 2026-05-07 07:03 | 53.96401 | 19.20582 | 28928 ft | 368 kts | 144° |
| 2026-05-07 07:03 | 53.92675 | 19.26570 | 28915 ft | 369 kts | 144° |
| 2026-05-07 07:04 | 53.88943 | 19.32561 | 28914 ft | 369 kts | 144° |
| 2026-05-07 07:04 | 53.85226 | 19.38508 | 28912 ft | 368 kts | 144° |
| 2026-05-07 07:05 | 53.81492 | 19.44469 | 28910 ft | 369 kts | 144° |
| 2026-05-07 07:05 | 53.77758 | 19.50417 | 28909 ft | 368 kts | 144° |
| 2026-05-07 07:06 | 53.74029 | 19.56334 | 28903 ft | 368 kts | 145° |
| 2026-05-07 07:06 | 53.70310 | 19.62227 | 28906 ft | 369 kts | 145° |
| 2026-05-07 07:07 | 53.66568 | 19.68139 | 28900 ft | 370 kts | 145° |
| 2026-05-07 07:07 | 53.62802 | 19.74075 | 28900 ft | 370 kts | 145° |
| 2026-05-07 07:08 | 53.59058 | 19.79962 | 28889 ft | 367 kts | 145° |
| 2026-05-07 07:08 | 53.55319 | 19.85820 | 28890 ft | 368 kts | 145° |
| 2026-05-07 07:09 | 53.51565 | 19.91693 | 28895 ft | 368 kts | 145° |
| 2026-05-07 07:09 | 53.47820 | 19.97537 | 28888 ft | 367 kts | 145° |
| 2026-05-07 07:10 | 53.44071 | 20.03368 | 28891 ft | 369 kts | 145° |
| 2026-05-07 07:10 | 53.40294 | 20.09233 | 28898 ft | 369 kts | 145° |
| 2026-05-07 07:11 | 53.36535 | 20.15051 | 28887 ft | 368 kts | 145° |
| 2026-05-07 07:11 | 53.32764 | 20.20874 | 28891 ft | 369 kts | 145° |
| 2026-05-07 07:12 | 53.28993 | 20.26684 | 28889 ft | 368 kts | 145° |
| 2026-05-07 07:12 | 53.25227 | 20.32471 | 28878 ft | 368 kts | 145° |
| 2026-05-07 07:13 | 53.21448 | 20.38265 | 28879 ft | 368 kts | 145° |
| 2026-05-07 07:13 | 53.17680 | 20.44025 | 28870 ft | 367 kts | 145° |
| 2026-05-07 07:14 | 53.13903 | 20.49783 | 28872 ft | 369 kts | 145° |
| 2026-05-07 07:14 | 53.10117 | 20.55545 | 28873 ft | 368 kts | 145° |
| 2026-05-07 07:15 | 53.06339 | 20.61278 | 28878 ft | 369 kts | 145° |
| 2026-05-07 07:15 | 53.02541 | 20.67028 | 28870 ft | 368 kts | 145° |
| 2026-05-07 07:16 | 52.98792 | 20.72687 | 28856 ft | 367 kts | 145° |
| 2026-05-07 07:16 | 52.94956 | 20.78459 | 28880 ft | 375 kts | 144° |
| 2026-05-07 07:17 | 52.91131 | 20.84219 | 28862 ft | 370 kts | 145° |
| 2026-05-07 07:17 | 52.87304 | 20.89944 | 28859 ft | 372 kts | 144° |
| 2026-05-07 07:18 | 52.83467 | 20.95688 | 28858 ft | 371 kts | 144° |
| 2026-05-07 07:18 | 52.79643 | 21.01386 | 28855 ft | 371 kts | 144° |
| 2026-05-07 07:19 | 52.75801 | 21.07103 | 28859 ft | 372 kts | 144° |
| 2026-05-07 07:19 | 52.71964 | 21.12799 | 28853 ft | 371 kts | 144° |
| 2026-05-07 07:20 | 52.68118 | 21.18490 | 28848 ft | 372 kts | 144° |
| 2026-05-07 07:20 | 52.64271 | 21.24172 | 28848 ft | 371 kts | 144° |
| 2026-05-07 07:21 | 52.60427 | 21.29834 | 28835 ft | 371 kts | 144° |
| 2026-05-07 07:21 | 52.56568 | 21.35505 | 28839 ft | 372 kts | 144° |
| 2026-05-07 07:22 | 52.52449 | 21.40332 | 28863 ft | 355 kts | 165° |
| 2026-05-07 07:22 | 52.47704 | 21.42246 | 28844 ft | 353 kts | 173° |
| 2026-05-07 07:23 | 52.42943 | 21.43986 | 28841 ft | 351 kts | 173° |
| 2026-05-07 07:23 | 52.38187 | 21.45717 | 28834 ft | 351 kts | 173° |
| 2026-05-07 07:24 | 52.33404 | 21.47455 | 28844 ft | 352 kts | 173° |
| 2026-05-07 07:24 | 52.28634 | 21.49186 | 28837 ft | 350 kts | 173° |
| 2026-05-07 07:25 | 52.21474 | 21.51775 | 28824 ft | 352 kts | 172° |
| 2026-05-07 07:26 | 52.16707 | 21.53496 | 28827 ft | 350 kts | 172° |
| 2026-05-07 07:26 | 52.12751 | 21.54918 | 28826 ft | 351 kts | 172° |
| 2026-05-07 07:27 | 52.07977 | 21.56633 | 28827 ft | 351 kts | 172° |
| 2026-05-07 07:27 | 52.03213 | 21.58342 | 28820 ft | 350 kts | 172° |
| 2026-05-07 07:28 | 51.98418 | 21.60054 | 28825 ft | 353 kts | 172° |
| 2026-05-07 07:28 | 51.93656 | 21.61758 | 28837 ft | 349 kts | 172° |
| 2026-05-07 07:29 | 51.88893 | 21.63450 | 28842 ft | 352 kts | 172° |
| 2026-05-07 07:29 | 51.84117 | 21.65150 | 28826 ft | 350 kts | 172° |
| 2026-05-07 07:30 | 51.79360 | 21.66835 | 28830 ft | 351 kts | 172° |
| 2026-05-07 07:30 | 51.74582 | 21.68544 | 28850 ft | 352 kts | 169° |
| 2026-05-07 07:31 | 51.69950 | 21.71126 | 28737 ft | 357 kts | 165° |
| 2026-05-07 07:31 | 51.67570 | 21.72483 | 28442 ft | 357 kts | 166° |
| 2026-05-07 07:31 | 51.65272 | 21.73767 | 28155 ft | 351 kts | 166° |
| 2026-05-07 07:31 | 51.62949 | 21.75069 | 27823 ft | 347 kts | 166° |
| 2026-05-07 07:32 | 51.60691 | 21.76337 | 27555 ft | 351 kts | 166° |
| 2026-05-07 07:32 | 51.58318 | 21.77665 | 27293 ft | 360 kts | 166° |
| 2026-05-07 07:32 | 51.55957 | 21.78996 | 27031 ft | 357 kts | 166° |
| 2026-05-07 07:32 | 51.53668 | 21.80325 | 26760 ft | 353 kts | 163° |
| 2026-05-07 07:33 | 51.51403 | 21.81818 | 26479 ft | 353 kts | 161° |
| 2026-05-07 07:33 | 51.49157 | 21.83436 | 26168 ft | 354 kts | 161° |
| 2026-05-07 07:33 | 51.46884 | 21.85074 | 25853 ft | 355 kts | 161° |
| 2026-05-07 07:33 | 51.44632 | 21.86631 | 25560 ft | 360 kts | 162° |
| 2026-05-07 07:34 | 51.42313 | 21.88230 | 25261 ft | 365 kts | 161° |
| 2026-05-07 07:34 | 51.39973 | 21.89869 | 24979 ft | 370 kts | 161° |
| 2026-05-07 07:34 | 51.37594 | 21.91535 | 24694 ft | 375 kts | 161° |
| 2026-05-07 07:34 | 51.35190 | 21.93208 | 24415 ft | 379 kts | 161° |
| 2026-05-07 07:35 | 51.32765 | 21.94892 | 24138 ft | 383 kts | 161° |
| 2026-05-07 07:35 | 51.30303 | 21.96602 | 23848 ft | 386 kts | 161° |
| 2026-05-07 07:35 | 51.27832 | 21.98318 | 23552 ft | 389 kts | 161° |
| 2026-05-07 07:35 | 51.25333 | 22.00050 | 23159 ft | 393 kts | 161° |
| 2026-05-07 07:36 | 51.22815 | 22.01793 | 22752 ft | 396 kts | 161° |
| 2026-05-07 07:36 | 51.20282 | 22.03545 | 22343 ft | 399 kts | 161° |
| 2026-05-07 07:36 | 51.17727 | 22.05309 | 21939 ft | 401 kts | 161° |
| 2026-05-07 07:36 | 51.15157 | 22.07080 | 21543 ft | 404 kts | 161° |
| 2026-05-07 07:37 | 51.12572 | 22.08862 | 21146 ft | 406 kts | 161° |
| 2026-05-07 07:37 | 51.09974 | 22.10650 | 20744 ft | 408 kts | 161° |
| 2026-05-07 07:37 | 51.07365 | 22.12443 | 20373 ft | 409 kts | 161° |
| 2026-05-07 07:37 | 51.04747 | 22.14239 | 19995 ft | 410 kts | 161° |
| 2026-05-07 07:38 | 51.02147 | 22.16024 | 19616 ft | 399 kts | 161° |
| 2026-05-07 07:38 | 50.99697 | 22.17711 | 19243 ft | 382 kts | 161° |
| 2026-05-07 07:38 | 50.97268 | 22.19367 | 18856 ft | 380 kts | 161° |
| 2026-05-07 07:38 | 50.94817 | 22.21028 | 18483 ft | 384 kts | 161° |
| 2026-05-07 07:39 | 50.92379 | 22.22696 | 18112 ft | 380 kts | 161° |
| 2026-05-07 07:39 | 50.89955 | 22.24353 | 17693 ft | 378 kts | 161° |
| 2026-05-07 07:39 | 50.87531 | 22.26001 | 17288 ft | 381 kts | 161° |
| 2026-05-07 07:39 | 50.85111 | 22.27644 | 16879 ft | 376 kts | 161° |
| 2026-05-07 07:40 | 50.82720 | 22.29272 | 16483 ft | 372 kts | 161° |
| 2026-05-07 07:40 | 50.80345 | 22.30883 | 16108 ft | 371 kts | 161° |
| 2026-05-07 07:40 | 50.77977 | 22.32484 | 15740 ft | 370 kts | 161° |
| 2026-05-07 07:40 | 50.75632 | 22.34075 | 15345 ft | 358 kts | 161° |
| 2026-05-07 07:41 | 50.73400 | 22.35592 | 14961 ft | 341 kts | 161° |
| 2026-05-07 07:41 | 50.71259 | 22.37038 | 14564 ft | 328 kts | 161° |
| 2026-05-07 07:41 | 50.69192 | 22.38426 | 14174 ft | 319 kts | 161° |
| 2026-05-07 07:41 | 50.67162 | 22.39792 | 13797 ft | 316 kts | 161° |
| 2026-05-07 07:42 | 50.65167 | 22.41139 | 13393 ft | 307 kts | 161° |
| 2026-05-07 07:42 | 50.63233 | 22.42443 | 12998 ft | 299 kts | 161° |
| 2026-05-07 07:42 | 50.61324 | 22.43722 | 12598 ft | 299 kts | 161° |
| 2026-05-07 07:42 | 50.59420 | 22.44998 | 12249 ft | 294 kts | 161° |
| 2026-05-07 07:43 | 50.57572 | 22.46246 | 11897 ft | 284 kts | 161° |
| 2026-05-07 07:43 | 50.55766 | 22.47455 | 11542 ft | 281 kts | 162° |
| 2026-05-07 07:43 | 50.53966 | 22.48659 | 11289 ft | 281 kts | 162° |
| 2026-05-07 07:43 | 50.52157 | 22.49867 | 11087 ft | 284 kts | 162° |
| 2026-05-07 07:44 | 50.50333 | 22.51088 | 10831 ft | 284 kts | 162° |
| 2026-05-07 07:44 | 50.48470 | 22.51870 | 10568 ft | 274 kts | 181° |
| 2026-05-07 07:44 | 50.46615 | 22.51709 | 10339 ft | 270 kts | 189° |
| 2026-05-07 07:44 | 50.44744 | 22.51393 | 10110 ft | 269 kts | 189° |
| 2026-05-07 07:45 | 50.42904 | 22.51100 | 10064 ft | 265 kts | 189° |
| 2026-05-07 07:45 | 50.41043 | 22.50799 | 9879 ft | 273 kts | 189° |
| 2026-05-07 07:45 | 50.39166 | 22.50499 | 9643 ft | 268 kts | 189° |
| 2026-05-07 07:45 | 50.37353 | 22.50214 | 9400 ft | 256 kts | 189° |
| 2026-05-07 07:46 | 50.35609 | 22.49935 | 9176 ft | 251 kts | 189° |
| 2026-05-07 07:46 | 50.33864 | 22.49652 | 8963 ft | 253 kts | 189° |
| 2026-05-07 07:46 | 50.32140 | 22.49380 | 8759 ft | 244 kts | 189° |
| 2026-05-07 07:46 | 50.30497 | 22.49123 | 8562 ft | 232 kts | 189° |
| 2026-05-07 07:47 | 50.28902 | 22.48867 | 8327 ft | 230 kts | 190° |
| 2026-05-07 07:47 | 50.27325 | 22.48616 | 8158 ft | 226 kts | 190° |
| 2026-05-07 07:47 | 50.25767 | 22.48365 | 8037 ft | 226 kts | 190° |
| 2026-05-07 07:47 | 50.24187 | 22.48113 | 7877 ft | 230 kts | 190° |
| 2026-05-07 07:48 | 50.22593 | 22.47863 | 7628 ft | 228 kts | 190° |
| 2026-05-07 07:48 | 50.21030 | 22.47619 | 7373 ft | 224 kts | 190° |
| 2026-05-07 07:48 | 50.19494 | 22.47373 | 7112 ft | 217 kts | 190° |
| 2026-05-07 07:48 | 50.18022 | 22.47141 | 6860 ft | 209 kts | 191° |
| 2026-05-07 07:49 | 50.16598 | 22.46917 | 6597 ft | 205 kts | 191° |
| 2026-05-07 07:49 | 50.15174 | 22.46687 | 6345 ft | 207 kts | 191° |
| 2026-05-07 07:49 | 50.13736 | 22.46460 | 6091 ft | 208 kts | 191° |
| 2026-05-07 07:49 | 50.12377 | 22.45869 | 5849 ft | 200 kts | 211° |
| 2026-05-07 07:50 | 50.11295 | 22.44536 | 5526 ft | 199 kts | 230° |
| 2026-05-07 07:50 | 50.10612 | 22.42696 | 5211 ft | 197 kts | 248° |
| 2026-05-07 07:50 | 50.10408 | 22.40603 | 4880 ft | 193 kts | 264° |
| 2026-05-07 07:50 | 50.10461 | 22.38656 | 4480 ft | 171 kts | 263° |
| 2026-05-07 07:51 | 50.10483 | 22.36819 | 4050 ft | 168 kts | 262° |
| 2026-05-07 07:51 | 50.10510 | 22.35004 | 3723 ft | 168 kts | 262° |
| 2026-05-07 07:51 | 50.10543 | 22.33248 | 3741 ft | 160 kts | 262° |
| 2026-05-07 07:51 | 50.10563 | 22.31452 | 3545 ft | 172 kts | 262° |
| 2026-05-07 07:52 | 50.10599 | 22.29641 | 3275 ft | 163 kts | 262° |
| 2026-05-07 07:52 | 50.10625 | 22.27886 | 3073 ft | 157 kts | 261° |
| 2026-05-07 07:52 | 50.10660 | 22.26305 | 2834 ft | 141 kts | 259° |
| 2026-05-07 07:52 | 50.10671 | 22.24755 | 2611 ft | 145 kts | 259° |
| 2026-05-07 07:53 | 50.10691 | 22.23211 | 2543 ft | 141 kts | 259° |
| 2026-05-07 07:53 | 50.10708 | 22.21667 | 2523 ft | 144 kts | 259° |
| 2026-05-07 07:53 | 50.10733 | 22.20083 | 2505 ft | 147 kts | 260° |
| 2026-05-07 07:53 | 50.10759 | 22.18511 | 2476 ft | 145 kts | 261° |
| 2026-05-07 07:54 | 50.10780 | 22.16889 | 2272 ft | 152 kts | 261° |
| 2026-05-07 07:54 | 50.10814 | 22.15251 | 2062 ft | 154 kts | 261° |
| 2026-05-07 07:54 | 50.10843 | 22.13560 | 1845 ft | 156 kts | 262° |
| 2026-05-07 07:54 | 50.10846 | 22.11871 | 1636 ft | 157 kts | 264° |
| 2026-05-07 07:55 | 50.10872 | 22.10186 | 1435 ft | 148 kts | 266° |
| 2026-05-07 07:55 | 50.10888 | 22.08609 | 1259 ft | 146 kts | 267° |
| 2026-05-07 07:55 | 50.10934 | 22.07040 | 1100 ft | 145 kts | 267° |
| 2026-05-07 07:55 | 50.10992 | 22.05485 | 931 ft | 147 kts | 266° |
| 2026-05-07 07:56 | 50.10979 | 22.03837 | 718 ft | 150 kts | 259° |
| 2026-05-07 07:56 | 50.10978 | 22.02386 | 691 ft | 116 kts | 275° |
| 2026-05-07 07:56 | 50.11003 | 22.01430 | 700 ft | 61 kts | 273° |
| 2026-05-07 07:56 | 50.11079 | 22.01080 | 694 ft | 24 kts | 302° |
| 2026-05-07 07:57 | 50.11115 | 22.00989 | 690 ft | 0 kts | 301° |
| 2026-05-07 07:58 | 50.11123 | 22.00968 | 690 ft | 8 kts | 301° |
| 2026-05-07 07:58 | 50.11151 | 22.00887 | 693 ft | 8 kts | 290° |
| 2026-05-07 07:58 | 50.11179 | 22.00817 | 692 ft | 8 kts | 333° |
| 2026-05-07 07:59 | 50.11212 | 22.00811 | 691 ft | 4 kts | 4° |
| 2026-05-07 07:59 | 50.11244 | 22.00813 | 695 ft | 5 kts | 2° |
| 2026-05-07 07:59 | 50.11267 | 22.00814 | 690 ft | 0 kts | 1° |